createdAt,value
2019-04-28T00:00:41.138Z,97836.09
2019-04-28T00:03:10.857Z,97831.02
2019-04-28T00:05:41.501Z,97834.02
2019-04-28T00:08:11.103Z,97833.88
2019-04-28T00:10:41.832Z,97832.39
2019-04-28T00:13:11.592Z,97830.52
2019-04-28T00:15:41.699Z,97830.34
2019-04-28T00:18:11.926Z,97830.26
2019-04-28T00:20:54.834Z,97831.92
2019-04-28T00:23:31.839Z,97830.59
2019-04-28T00:26:05.636Z,97829.21
2019-04-28T00:28:35.068Z,97830.06
2019-04-28T00:31:04.722Z,97835.16
2019-04-28T00:33:34.147Z,97832.97
2019-04-28T00:36:03.658Z,97830.31
2019-04-28T00:38:33.098Z,97835.95
2019-04-28T00:41:02.541Z,97832.06
2019-04-28T00:43:31.970Z,97833.84
2019-04-28T00:46:02.388Z,97828.28
2019-04-28T00:48:31.811Z,97826.73
2019-04-28T00:51:01.807Z,97830.09
2019-04-28T00:53:31.431Z,97831.81
2019-04-28T00:56:02.192Z,97828.08
2019-04-28T00:58:31.953Z,97824.34
2019-04-28T01:01:18.608Z,97826.41
2019-04-28T01:03:48.231Z,97824.73
2019-04-28T01:06:17.672Z,97826.11
2019-04-28T01:08:47.103Z,97829.12
2019-04-28T01:11:16.535Z,97831.63
2019-04-28T01:13:46.009Z,97829.85
2019-04-28T01:16:32.890Z,97828.66
2019-04-28T01:19:03.978Z,97823.47
2019-04-28T01:21:37.991Z,97828.02
2019-04-28T01:24:07.432Z,97828.25
2019-04-28T01:26:36.953Z,97826.98
2019-04-28T01:29:06.374Z,97831.27
2019-04-28T01:31:39.925Z,97827.91
2019-04-28T01:34:20.533Z,97829.98
2019-04-28T01:36:51.585Z,97827.41
2019-04-28T01:39:21.247Z,97823.41
2019-04-28T01:41:50.689Z,97832.39
2019-04-28T01:44:20.113Z,97826.85
2019-04-28T01:46:49.756Z,97839.23
2019-04-28T01:49:19.682Z,97831.86
2019-04-28T01:52:01.276Z,97832.83
2019-04-28T01:54:30.817Z,97834.16
2019-04-28T01:57:01.409Z,97833.23
2019-04-28T01:59:31.062Z,97837.55
2019-04-28T02:02:00.490Z,97838.96
2019-04-28T02:04:32.438Z,97843.52
2019-04-28T02:07:01.089Z,97846.00
2019-04-28T02:09:30.516Z,97841.80
2019-04-28T02:12:00.786Z,97846.81
2019-04-28T02:14:30.819Z,97841.22
2019-04-28T02:17:00.633Z,97843.73
2019-04-28T02:19:30.563Z,97843.32
2019-04-28T02:22:20.159Z,97843.76
2019-04-28T02:24:50.490Z,97842.48
2019-04-28T02:27:20.414Z,97839.53
2019-04-28T02:29:50.088Z,97846.27
2019-04-28T02:32:21.290Z,97845.06
2019-04-28T02:34:50.918Z,97847.66
2019-04-28T02:37:20.810Z,97852.00
2019-04-28T02:39:50.683Z,97853.58
2019-04-28T02:42:20.816Z,97847.63
2019-04-28T02:44:51.012Z,97854.89
2019-04-28T02:47:22.035Z,97850.98
2019-04-28T02:50:08.339Z,97853.11
2019-04-28T02:52:45.072Z,97853.11
2019-04-28T02:55:14.494Z,97853.55
2019-04-28T02:57:43.944Z,97851.39
2019-04-28T03:00:13.717Z,97857.08
2019-04-28T03:02:43.247Z,97860.05
2019-04-28T03:05:12.794Z,97867.00
2019-04-28T03:07:42.224Z,97862.42
2019-04-28T03:10:11.743Z,97860.75
2019-04-28T03:12:41.658Z,97869.28
2019-04-28T03:15:11.686Z,97866.00
2019-04-28T03:17:41.180Z,97863.36
2019-04-28T03:20:11.140Z,97863.83
2019-04-28T03:22:41.104Z,97867.23
2019-04-28T03:25:12.362Z,97866.77
2019-04-28T03:27:51.954Z,97865.11
2019-04-28T03:30:43.463Z,97870.98
2019-04-28T03:33:18.815Z,97867.16
2019-04-28T03:35:45.603Z,97870.23
2019-04-28T03:38:15.033Z,97873.56
2019-04-28T03:40:44.472Z,97872.34
2019-04-28T03:43:14.671Z,97873.64
2019-04-28T03:45:50.330Z,97880.41
2019-04-28T03:48:21.081Z,97880.80
2019-04-28T03:50:51.402Z,97885.91
2019-04-28T03:53:20.905Z,97876.91
2019-04-28T03:55:51.293Z,97875.19
2019-04-28T03:58:23.669Z,97873.93
2019-04-28T04:00:52.099Z,97873.98
2019-04-28T04:03:21.542Z,97878.31
2019-04-28T04:05:51.215Z,97875.64
2019-04-28T04:08:21.146Z,97879.05
2019-04-28T04:10:52.246Z,97879.57
2019-04-28T04:13:41.563Z,97878.75
2019-04-28T04:16:10.429Z,97882.16
2019-04-28T04:18:40.735Z,97880.85
2019-04-28T04:21:11.246Z,97876.13
2019-04-28T04:23:41.375Z,97886.80
2019-04-28T04:26:11.625Z,97888.02
2019-04-28T04:28:41.902Z,97884.64
2019-04-28T04:31:11.446Z,97893.16
2019-04-28T04:33:41.354Z,97894.44
2019-04-28T04:36:11.947Z,97894.86
2019-04-28T04:38:45.954Z,97897.90
2019-04-28T04:41:12.701Z,97899.56
2019-04-28T04:43:42.129Z,97906.03
2019-04-28T04:46:15.963Z,97895.84
2019-04-28T04:48:45.509Z,97902.98
2019-04-28T04:51:15.085Z,97907.67
2019-04-28T04:53:44.578Z,97903.46
2019-04-28T04:56:14.023Z,97908.90
2019-04-28T04:58:43.449Z,97907.13
2019-04-28T05:01:21.476Z,97910.95
2019-04-28T05:03:55.022Z,97906.31
2019-04-28T05:06:41.222Z,97907.11
2019-04-28T05:09:11.969Z,97907.49
2019-04-28T05:11:41.468Z,97914.23
2019-04-28T05:14:12.039Z,97913.00
2019-04-28T05:16:41.623Z,97921.98
2019-04-28T05:19:11.071Z,97924.95
2019-04-28T05:21:40.631Z,97929.24
2019-04-28T05:24:17.615Z,97929.98
2019-04-28T05:26:49.777Z,97936.91
2019-04-28T05:29:26.426Z,97939.48
2019-04-28T05:31:54.755Z,97939.86
2019-04-28T05:34:24.071Z,97939.80
2019-04-28T05:36:53.551Z,97940.16
2019-04-28T05:39:22.981Z,97947.04
2019-04-28T05:41:52.422Z,97947.42
2019-04-28T05:44:21.853Z,97954.27
2019-04-28T05:46:51.278Z,97953.06
2019-04-28T05:49:32.109Z,97955.09
2019-04-28T05:52:20.017Z,97960.17
2019-04-28T05:54:51.067Z,97958.48
2019-04-28T05:57:22.131Z,97961.42
2019-04-28T05:59:53.777Z,97971.58
2019-04-28T06:02:31.505Z,97969.45
2019-04-28T06:05:00.949Z,97976.03
2019-04-28T06:07:37.656Z,97975.42
2019-04-28T06:10:07.730Z,97978.54
2019-04-28T06:12:37.174Z,97973.33
2019-04-28T06:15:11.708Z,97971.17
2019-04-28T06:17:39.763Z,97978.52
2019-04-28T06:20:11.424Z,97975.48
2019-04-28T06:22:40.565Z,97978.78
2019-04-28T06:25:10.000Z,97985.11
2019-04-28T06:27:39.421Z,97989.87
2019-04-28T06:30:09.680Z,97982.63
2019-04-28T06:32:39.109Z,97985.72
2019-04-28T06:35:08.730Z,97989.95
2019-04-28T06:37:38.370Z,97991.64
2019-04-28T06:40:08.339Z,97990.70
2019-04-28T06:42:37.782Z,97988.94
2019-04-28T06:45:07.697Z,97992.17
2019-04-28T06:47:37.127Z,97999.78
2019-04-28T06:50:07.103Z,97999.62
2019-04-28T06:52:36.536Z,98004.25
2019-04-28T06:55:07.104Z,98005.42
2019-04-28T06:57:36.542Z,98009.18
2019-04-28T07:00:07.198Z,98003.91
2019-04-28T07:02:36.628Z,98010.27
2019-04-28T07:05:07.672Z,98011.34
2019-04-28T07:07:37.095Z,98011.81
2019-04-28T07:10:08.077Z,98011.72
2019-04-28T07:12:37.520Z,98012.03
2019-04-28T07:15:07.184Z,98013.88
2019-04-28T07:17:36.699Z,98008.61
2019-04-28T07:20:20.876Z,98006.89
2019-04-28T07:22:53.309Z,98001.84
2019-04-28T07:25:22.770Z,98006.92
2019-04-28T07:27:52.219Z,98006.72
2019-04-28T07:30:21.825Z,98007.36
2019-04-28T07:32:52.904Z,98012.13
2019-04-28T07:35:22.353Z,98016.54
2019-04-28T07:37:51.794Z,98012.81
2019-04-28T07:40:21.212Z,98011.12
2019-04-28T07:42:50.657Z,98017.44
2019-04-28T07:45:20.086Z,98013.05
2019-04-28T07:47:49.509Z,98012.13
2019-04-28T07:50:18.950Z,98018.48
2019-04-28T07:52:50.034Z,98016.14
2019-04-28T07:55:19.458Z,98021.05
2019-04-28T07:57:48.903Z,98024.98
2019-04-28T08:00:20.202Z,98033.39
2019-04-28T08:02:49.632Z,98031.16
2019-04-28T08:05:19.075Z,98031.91
2019-04-28T08:07:48.504Z,98042.53
2019-04-28T08:10:17.935Z,98036.30
2019-04-28T08:12:49.187Z,98037.40
2019-04-28T08:15:18.682Z,98038.74
2019-04-28T08:17:48.116Z,98035.30
2019-04-28T08:20:17.708Z,98044.56
2019-04-28T08:22:47.139Z,98041.73
2019-04-28T08:25:16.580Z,98042.95
2019-04-28T08:27:46.015Z,98047.34
2019-04-28T08:30:15.583Z,98047.06
2019-04-28T08:32:52.616Z,98052.39
2019-04-28T08:35:22.114Z,98052.23
2019-04-28T08:37:51.566Z,98050.87
2019-04-28T08:40:21.113Z,98056.86
2019-04-28T08:42:50.621Z,98053.23
2019-04-28T08:45:20.063Z,98055.64
2019-04-28T08:47:49.531Z,98059.12
2019-04-28T08:50:19.043Z,98062.12
2019-04-28T08:52:48.480Z,98068.00
2019-04-28T08:55:17.911Z,98061.47
2019-04-28T08:57:47.397Z,98064.27
2019-04-28T09:00:17.932Z,98068.65
2019-04-28T09:02:47.379Z,98068.92
2019-04-28T09:05:16.886Z,98072.86
2019-04-28T09:07:46.599Z,98069.76
2019-04-28T09:10:16.119Z,98073.45
2019-04-28T09:12:45.566Z,98075.53
2019-04-28T09:15:15.149Z,98079.03
2019-04-28T09:17:44.617Z,98078.84
2019-04-28T09:20:14.274Z,98073.45
2019-04-28T09:22:43.715Z,98080.15
2019-04-28T09:25:13.448Z,98085.91
2019-04-28T09:27:42.892Z,98078.62
2019-04-28T09:30:12.764Z,98080.24
2019-04-28T09:32:42.221Z,98079.20
2019-04-28T09:35:11.806Z,98072.50
2019-04-28T09:37:41.258Z,98071.38
2019-04-28T09:40:14.576Z,98077.92
2019-04-28T09:42:57.626Z,98076.61
2019-04-28T09:45:28.742Z,98075.82
2019-04-28T09:47:58.190Z,98081.16
2019-04-28T09:50:27.620Z,98076.84
2019-04-28T09:52:57.067Z,98070.26
2019-04-28T09:55:26.505Z,98065.34
2019-04-28T09:57:55.936Z,98068.48
2019-04-28T10:00:25.451Z,98058.22
2019-04-28T10:02:54.885Z,98065.41
2019-04-28T10:05:24.332Z,98061.95
2019-04-28T10:07:53.770Z,98062.03
2019-04-28T10:10:23.271Z,98062.82
2019-04-28T10:12:52.702Z,98068.88
2019-04-28T10:15:22.214Z,98063.48
2019-04-28T10:17:51.653Z,98061.36
2019-04-28T10:20:22.043Z,98064.29
2019-04-28T10:22:51.494Z,98061.67
2019-04-28T10:25:21.260Z,98060.97
2019-04-28T10:27:50.743Z,98062.25
2019-04-28T10:30:20.411Z,98061.22
2019-04-28T10:32:49.850Z,98057.61
2019-04-28T10:35:19.429Z,98064.12
2019-04-28T10:37:48.878Z,98065.59
2019-04-28T10:40:40.569Z,98072.91
2019-04-28T10:43:10.169Z,98071.06
2019-04-28T10:45:46.697Z,98075.03
2019-04-28T10:48:16.570Z,98071.95
2019-04-28T10:50:46.071Z,98071.78
2019-04-28T10:53:15.521Z,98073.37
2019-04-28T10:55:44.954Z,98078.07
2019-04-28T10:58:14.399Z,98070.39
2019-04-28T11:00:43.853Z,98071.61
2019-04-28T11:03:13.287Z,98066.09
2019-04-28T11:05:43.959Z,98070.56
2019-04-28T11:08:24.234Z,98063.84
2019-04-28T11:10:54.114Z,98069.57
2019-04-28T11:13:23.576Z,98061.25
2019-04-28T11:15:53.010Z,98060.82
2019-04-28T11:18:22.447Z,98061.66
2019-04-28T11:20:51.893Z,98061.92
2019-04-28T11:23:23.231Z,98069.70
2019-04-28T11:25:52.480Z,98081.19
2019-04-28T11:28:21.924Z,98078.44
2019-04-28T11:30:51.359Z,98079.36
2019-04-28T11:33:22.507Z,98078.05
2019-04-28T11:35:52.630Z,98097.31
2019-04-28T11:38:22.109Z,98095.62
2019-04-28T11:40:51.629Z,98104.59
2019-04-28T11:43:21.065Z,98095.28
2019-04-28T11:45:50.556Z,98102.19
2019-04-28T11:48:20.071Z,98092.27
2019-04-28T11:50:49.520Z,98089.99
2019-04-28T11:53:18.951Z,98088.30
2019-04-28T11:55:48.411Z,98087.95
2019-04-28T11:58:17.924Z,98091.16
2019-04-28T12:00:47.371Z,98099.84
2019-04-28T12:03:16.797Z,98103.11
2019-04-28T12:05:47.663Z,98102.95
2019-04-28T12:08:17.091Z,98117.33
2019-04-28T12:10:46.467Z,98109.36
2019-04-28T12:13:17.570Z,98112.72
2019-04-28T12:15:49.206Z,98108.50
2019-04-28T12:18:24.059Z,98109.41
2019-04-28T12:20:53.559Z,98114.58
2019-04-28T12:23:23.154Z,98118.34
2019-04-28T12:25:52.609Z,98120.38
2019-04-28T12:28:22.038Z,98123.19
2019-04-28T12:30:51.492Z,98126.97
2019-04-28T12:33:20.919Z,98127.21
2019-04-28T12:35:50.366Z,98127.80
2019-04-28T12:38:19.803Z,98135.84
2019-04-28T12:40:49.237Z,98130.66
2019-04-28T12:43:18.677Z,98129.25
2019-04-28T12:45:48.399Z,98138.41
2019-04-28T12:48:17.831Z,98139.63
2019-04-28T12:50:51.588Z,98136.20
2019-04-28T12:53:21.797Z,98133.56
2019-04-28T12:55:51.225Z,98140.55
2019-04-28T12:58:20.691Z,98139.22
2019-04-28T13:00:49.878Z,98139.58
2019-04-28T13:03:23.363Z,98141.45
2019-04-28T13:06:02.622Z,98145.27
2019-04-28T13:08:28.481Z,98145.41
2019-04-28T13:10:57.913Z,98148.91
2019-04-28T13:13:27.360Z,98152.38
2019-04-28T13:15:56.863Z,98150.28
2019-04-28T13:18:26.296Z,98146.50
2019-04-28T13:20:55.746Z,98147.32
2019-04-28T13:23:25.177Z,98144.67
2019-04-28T13:25:54.617Z,98138.33
2019-04-28T13:28:24.071Z,98138.80
2019-04-28T13:30:53.515Z,98135.42
2019-04-28T13:33:22.927Z,98130.33
2019-04-28T13:35:52.447Z,98132.30
2019-04-28T13:38:21.915Z,98130.17
2019-04-28T13:40:51.333Z,98131.59
2019-04-28T13:43:20.777Z,98138.95
2019-04-28T13:45:50.226Z,98138.63
2019-04-28T13:48:19.681Z,98136.78
2019-04-28T13:50:49.320Z,98127.94
2019-04-28T13:53:18.825Z,98123.55
2019-04-28T13:55:48.027Z,98126.25
2019-04-28T13:58:21.522Z,98122.53
2019-04-28T14:00:52.591Z,98128.49
2019-04-28T14:03:21.818Z,98131.34
2019-04-28T14:06:01.583Z,98131.56
2019-04-28T14:08:31.063Z,98126.78
2019-04-28T14:11:00.437Z,98122.94
2019-04-28T14:13:29.883Z,98123.73
2019-04-28T14:15:59.327Z,98121.56
2019-04-28T14:18:28.758Z,98120.70
2019-04-28T14:20:58.328Z,98118.41
2019-04-28T14:23:27.780Z,98121.70
2019-04-28T14:25:57.321Z,98120.81
2019-04-28T14:28:26.765Z,98110.92
2019-04-28T14:30:56.188Z,98117.84
2019-04-28T14:33:25.640Z,98110.53
2019-04-28T14:35:55.107Z,98114.86
2019-04-28T14:38:24.684Z,98113.45
2019-04-28T14:40:54.138Z,98108.81
2019-04-28T14:43:23.626Z,98106.83
2019-04-28T14:45:53.022Z,98107.38
2019-04-28T14:48:22.456Z,98110.48
2019-04-28T14:50:51.903Z,98112.00
2019-04-28T14:53:21.381Z,98118.87
2019-04-28T14:55:50.842Z,98123.81
2019-04-28T14:58:20.294Z,98116.89
2019-04-28T15:01:03.313Z,98111.98
2019-04-28T15:03:34.358Z,98112.52
2019-04-28T15:06:03.633Z,98117.80
2019-04-28T15:08:43.480Z,98121.22
2019-04-28T15:11:14.505Z,98111.64
2019-04-28T15:13:43.957Z,98118.05
2019-04-28T15:16:13.415Z,98109.58
2019-04-28T15:18:42.846Z,98116.03
2019-04-28T15:21:12.260Z,98112.80
2019-04-28T15:23:41.734Z,98120.79
2019-04-28T15:26:11.161Z,98106.83
2019-04-28T15:28:40.610Z,98104.78
2019-04-28T15:31:10.047Z,98103.47
2019-04-28T15:33:39.488Z,98101.39
2019-04-28T15:36:09.159Z,98106.98
2019-04-28T15:38:38.608Z,98103.98
2019-04-28T15:41:20.925Z,98102.83
2019-04-28T15:43:39.619Z,98112.11
2019-04-28T15:46:09.049Z,98106.77
2019-04-28T15:48:38.480Z,98105.83
2019-04-28T15:51:07.930Z,98107.23
2019-04-28T15:53:38.232Z,98111.93
2019-04-28T15:56:21.108Z,98114.87
2019-04-28T15:58:50.545Z,98112.61
2019-04-28T16:01:20.828Z,98114.88
2019-04-28T16:03:50.266Z,98118.01
2019-04-28T16:06:19.698Z,98127.35
2019-04-28T16:08:49.129Z,98121.44
2019-04-28T16:11:18.573Z,98120.63
2019-04-28T16:13:48.021Z,98127.96
2019-04-28T16:16:17.462Z,98127.84
2019-04-28T16:18:47.192Z,98127.60
2019-04-28T16:21:16.623Z,98129.36
2019-04-28T16:23:46.054Z,98133.48
2019-04-28T16:26:15.509Z,98132.49
2019-04-28T16:28:44.961Z,98136.34
2019-04-28T16:31:14.388Z,98137.41
2019-04-28T16:33:43.819Z,98140.48
2019-04-28T16:36:13.270Z,98138.41
2019-04-28T16:38:42.694Z,98142.78
2019-04-28T16:41:20.240Z,98143.55
2019-04-28T16:43:50.347Z,98143.39
2019-04-28T16:46:19.958Z,98148.63
2019-04-28T16:48:49.401Z,98144.38
2019-04-28T16:51:18.834Z,98146.48
2019-04-28T16:53:48.279Z,98151.96
2019-04-28T16:56:19.371Z,98150.27
2019-04-28T16:59:05.383Z,98158.72
2019-04-28T17:01:38.944Z,98150.89
2019-04-28T17:04:08.396Z,98151.30
2019-04-28T17:06:37.909Z,98159.06
2019-04-28T17:09:08.450Z,98161.53
2019-04-28T17:11:37.898Z,98159.84
2019-04-28T17:14:07.333Z,98166.16
2019-04-28T17:16:36.791Z,98167.31
2019-04-28T17:19:06.275Z,98172.17
2019-04-28T17:21:35.773Z,98175.67
2019-04-28T17:24:05.311Z,98180.25
2019-04-28T17:26:34.754Z,98185.89
2019-04-28T17:29:04.380Z,98190.62
2019-04-28T17:31:33.993Z,98190.99
2019-04-28T17:34:03.426Z,98182.77
2019-04-28T17:36:32.931Z,98177.63
2019-04-28T17:39:02.378Z,98180.14
2019-04-28T17:41:32.168Z,98182.13
2019-04-28T17:44:01.612Z,98181.94
2019-04-28T17:46:31.044Z,98184.13
2019-04-28T17:49:01.066Z,98183.52
2019-04-28T17:51:30.570Z,98184.64
2019-04-28T17:53:59.999Z,98185.80
2019-04-28T17:56:29.450Z,98185.60
2019-04-28T17:58:58.899Z,98190.89
2019-04-28T18:01:32.674Z,98199.64
2019-04-28T18:04:06.716Z,98201.01
2019-04-28T18:06:38.185Z,98203.48
2019-04-28T18:09:08.946Z,98204.72
2019-04-28T18:11:38.552Z,98216.20
2019-04-28T18:14:08.026Z,98219.73
2019-04-28T18:16:47.854Z,98224.14
2019-04-28T18:19:18.947Z,98225.87
2019-04-28T18:21:48.385Z,98224.71
2019-04-28T18:24:17.898Z,98233.23
2019-04-28T18:26:47.347Z,98234.09
2019-04-28T18:29:16.778Z,98237.50
2019-04-28T18:32:03.707Z,98240.78
2019-04-28T18:34:34.778Z,98244.35
2019-04-28T18:37:22.180Z,98250.62
2019-04-28T18:40:05.355Z,98251.27
2019-04-28T18:42:40.281Z,98259.32
2019-04-28T18:45:10.872Z,98268.56
2019-04-28T18:47:40.304Z,98276.07
2019-04-28T18:50:10.262Z,98275.77
2019-04-28T18:52:39.758Z,98280.20
2019-04-28T18:55:09.304Z,98285.45
2019-04-28T18:57:38.788Z,98294.67
2019-04-28T19:00:09.560Z,98294.32
2019-04-28T19:02:48.733Z,98298.20
2019-04-28T19:05:18.936Z,98304.11
2019-04-28T19:07:50.015Z,98303.77
2019-04-28T19:10:19.211Z,98309.00
2019-04-28T19:12:58.734Z,98318.50
2019-04-28T19:15:36.881Z,98320.75
2019-04-28T19:18:10.919Z,98320.01
2019-04-28T19:20:40.348Z,98321.31
2019-04-28T19:23:09.795Z,98324.80
2019-04-28T19:25:39.231Z,98326.23
2019-04-28T19:28:08.660Z,98329.22
2019-04-28T19:30:38.111Z,98332.23
2019-04-28T19:33:07.543Z,98334.01
2019-04-28T19:35:36.963Z,98334.02
2019-04-28T19:38:06.418Z,98329.84
2019-04-28T19:40:35.916Z,98341.42
2019-04-28T19:43:05.347Z,98337.19
2019-04-28T19:45:36.426Z,98341.84
2019-04-28T19:48:05.941Z,98341.00
2019-04-28T19:50:35.379Z,98348.29
2019-04-28T19:53:04.875Z,98353.00
2019-04-28T19:55:35.954Z,98353.41
2019-04-28T19:58:05.234Z,98361.13
2019-04-28T20:00:36.391Z,98358.96
2019-04-28T20:03:05.824Z,98356.42
2019-04-28T20:05:35.265Z,98357.25
2019-04-28T20:08:04.783Z,98366.67
2019-04-28T20:10:34.214Z,98358.97
2019-04-28T20:13:03.646Z,98361.97
2019-04-28T20:15:33.090Z,98361.97
2019-04-28T20:18:02.528Z,98364.95
2019-04-28T20:20:31.974Z,98366.66
2019-04-28T20:23:01.405Z,98372.95
2019-04-28T20:25:30.832Z,98372.98
2019-04-28T20:28:00.266Z,98364.88
2019-04-28T20:30:29.710Z,98376.84
2019-04-28T20:33:06.858Z,98374.27
2019-04-28T20:35:32.006Z,98375.98
2019-04-28T20:38:17.699Z,98378.95
2019-04-28T20:40:57.459Z,98381.48
2019-04-28T20:43:27.964Z,98386.98
2019-04-28T20:45:57.644Z,98385.23
2019-04-28T20:48:27.086Z,98383.52
2019-04-28T20:50:56.510Z,98384.78
2019-04-28T20:53:25.936Z,98390.72
2019-04-28T20:55:55.374Z,98391.13
2019-04-28T20:58:24.815Z,98392.39
2019-04-28T21:00:54.238Z,98402.19
2019-04-28T21:03:23.666Z,98399.16
2019-04-28T21:05:53.117Z,98404.70
2019-04-28T21:08:22.547Z,98406.83
2019-04-28T21:10:51.987Z,98411.09
2019-04-28T21:13:21.409Z,98408.06
2019-04-28T21:15:50.834Z,98410.54
2019-04-28T21:18:20.276Z,98412.22
2019-04-28T21:20:49.934Z,98409.66
2019-04-28T21:23:19.382Z,98410.48
2019-04-28T21:25:48.836Z,98407.50
2019-04-28T21:28:18.252Z,98410.86
2019-04-28T21:30:47.752Z,98413.84
2019-04-28T21:33:17.186Z,98415.47
2019-04-28T21:35:46.611Z,98420.09
2019-04-28T21:38:16.051Z,98419.22
2019-04-28T21:40:45.478Z,98422.25
2019-04-28T21:43:20.500Z,98418.39
2019-04-28T21:45:52.087Z,98422.53
2019-04-28T21:48:38.756Z,98425.48
2019-04-28T21:51:11.672Z,98428.78
2019-04-28T21:53:39.582Z,98431.23
2019-04-28T21:56:09.035Z,98429.50
2019-04-28T21:58:38.464Z,98431.63
2019-04-28T22:01:09.116Z,98430.48
2019-04-28T22:03:38.607Z,98435.09
2019-04-28T22:06:08.048Z,98440.52
2019-04-28T22:08:37.486Z,98441.73
2019-04-28T22:11:07.046Z,98442.50
2019-04-28T22:13:36.484Z,98447.14
2019-04-28T22:16:06.073Z,98450.93
2019-04-28T22:18:35.500Z,98450.51
2019-04-28T22:21:05.022Z,98447.91
2019-04-28T22:23:52.010Z,98448.77
2019-04-28T22:26:38.565Z,98457.61
2019-04-28T22:29:08.002Z,98460.45
2019-04-28T22:31:37.431Z,98460.23
2019-04-28T22:34:06.946Z,98462.36
2019-04-28T22:36:36.438Z,98462.45
2019-04-28T22:39:07.906Z,98456.41
2019-04-28T22:41:37.621Z,98458.06
2019-04-28T22:44:07.488Z,98461.13
2019-04-28T22:46:36.995Z,98457.34
2019-04-28T22:49:06.945Z,98462.36
2019-04-28T22:51:36.520Z,98464.01
2019-04-28T22:54:07.836Z,98468.78
2019-04-28T22:56:38.920Z,98470.15
2019-04-28T22:59:10.070Z,98473.55
2019-04-28T23:01:47.158Z,98473.84
2019-04-28T23:04:19.193Z,98475.02
2019-04-28T23:06:48.811Z,98476.24
2019-04-28T23:09:20.070Z,98484.41
2019-04-28T23:11:49.566Z,98481.34
2019-04-28T23:14:19.009Z,98477.84
2019-04-28T23:16:48.438Z,98482.42
2019-04-28T23:19:19.514Z,98484.21
2019-04-28T23:22:06.459Z,98490.16
2019-04-28T23:24:35.901Z,98491.08
2019-04-28T23:27:05.408Z,98489.06
2019-04-28T23:29:34.847Z,98495.00
2019-04-28T23:32:04.724Z,98493.55
2019-04-28T23:34:34.236Z,98494.41
2019-04-28T23:37:03.670Z,98500.66
2019-04-28T23:39:33.103Z,98496.78
2019-04-28T23:42:04.195Z,98500.62
2019-04-28T23:44:33.634Z,98496.16
2019-04-28T23:47:04.449Z,98492.76
2019-04-28T23:49:33.883Z,98503.38
2019-04-28T23:52:10.364Z,98506.25
2019-04-28T23:54:41.436Z,98501.45
2019-04-28T23:57:11.131Z,98508.58
2019-04-28T23:59:40.581Z,98504.32
